Time;durP1;ratioP1;P1;durP2;ratioP2;P2;SDS_P1;SDS_P2;PMS_P1;PMS_P2;Temp;Humidity;BMP_temperature;BMP_pressure;BME280_temperature;BME280_humidity;BME280_pressure;Samples;Min_cycle;Max_cycle;Signal;HPM_P1;HPM_P2
2022/04/08 00:00:46;;;;;;;2.30;0.30;;;14.80;50.60;;;;;;5054692;28;20045;-72
2022/04/08 00:03:14;;;;;;;3.10;0.40;;;14.80;50.60;;;;;;5054265;28;20093;-67
2022/04/08 00:05:40;;;;;;;1.52;0.60;;;14.80;50.60;;;;;;5053759;28;20044;-71
2022/04/08 00:08:05;;;;;;;1.23;0.10;;;14.80;50.60;;;;;;5053780;28;20041;-71
2022/04/08 00:10:31;;;;;;;2.47;0.30;;;14.80;50.60;;;;;;5071434;28;20123;-67
2022/04/08 00:12:57;;;;;;;1.80;0.22;;;14.80;50.60;;;;;;5050513;28;20171;-70
2022/04/08 00:15:23;;;;;;;1.92;0.52;;;14.80;50.60;;;;;;5050445;28;20053;-71
2022/04/08 00:17:49;;;;;;;2.97;0.30;;;14.80;50.60;;;;;;5050369;28;20049;-71
2022/04/08 00:20:14;;;;;;;1.77;0.20;;;14.80;50.60;;;;;;5050926;28;20052;-67
2022/04/08 00:22:41;;;;;;;2.15;0.20;;;14.80;50.60;;;;;;5050588;28;20040;-70
2022/04/08 00:25:11;;;;;;;1.25;0.10;;;14.70;50.60;;;;;;5050734;28;20072;-70
2022/04/08 00:27:38;;;;;;;2.17;0.38;;;14.80;50.70;;;;;;5051405;28;20502;-70
2022/04/08 00:30:05;;;;;;;1.35;0.10;;;14.70;50.70;;;;;;5049304;28;20049;-70
2022/04/08 00:32:31;;;;;;;1.10;0.38;;;14.70;50.60;;;;;;5049805;28;20043;-72
2022/04/08 00:34:58;;;;;;;1.50;0.20;;;14.70;50.60;;;;;;5051167;28;20047;-67
2022/04/08 00:37:23;;;;;;;2.15;0.22;;;14.70;50.60;;;;;;5049961;28;20052;-68
2022/04/08 00:39:50;;;;;;;2.97;0.35;;;14.70;50.50;;;;;;5050564;28;20037;-71
2022/04/08 00:42:15;;;;;;;1.02;0.20;;;14.70;50.50;;;;;;5050385;28;20052;-71
2022/04/08 00:44:41;;;;;;;1.13;0.20;;;14.70;50.50;;;;;;5052060;28;20040;-72
2022/04/08 00:47:06;;;;;;;2.45;0.30;;;14.70;50.50;;;;;;5051053;28;20041;-72
2022/04/08 00:49:35;;;;;;;1.38;0.17;;;14.70;50.50;;;;;;5049158;28;20090;-72
2022/04/08 00:52:01;;;;;;;1.30;0.28;;;14.70;50.50;;;;;;5050816;28;20037;-71
2022/04/08 00:54:30;;;;;;;1.33;0.20;;;14.70;50.50;;;;;;5049528;28;20107;-70
2022/04/08 00:56:56;;;;;;;0.80;0.20;;;14.60;50.50;;;;;;5049821;28;20071;-71
2022/04/08 00:59:24;;;;;;;1.23;0.10;;;14.60;50.40;;;;;;5050058;28;20037;-71
2022/04/08 01:01:50;;;;;;;0.75;0.10;;;14.60;50.40;;;;;;5050059;28;20049;-70
2022/04/08 01:04:15;;;;;;;0.70;0.20;;;14.60;50.50;;;;;;5050522;28;20090;-72
2022/04/08 01:06:44;;;;;;;1.60;0.20;;;14.60;50.40;;;;;;5049877;28;20041;-70
2022/04/08 01:09:10;;;;;;;0.82;0.10;;;14.60;50.50;;;;;;5048990;28;20037;-70
2022/04/08 01:11:37;;;;;;;1.27;0.20;;;14.60;50.50;;;;;;5049396;28;20045;-70
2022/04/08 01:14:11;;;;;;;1.73;0.13;;;14.60;50.40;;;;;;5048939;28;20088;-71
2022/04/08 01:16:37;;;;;;;1.52;0.10;;;14.60;50.60;;;;;;5049261;28;20041;-70
2022/04/08 01:19:03;;;;;;;2.13;0.22;;;14.70;50.40;;;;;;5049187;28;20076;-72
2022/04/08 01:21:29;;;;;;;0.65;0.10;;;14.70;50.30;;;;;;5049516;28;20048;-67
2022/04/08 01:23:56;;;;;;;1.25;0.20;;;15.00;50.10;;;;;;5049521;28;20037;-72
2022/04/08 01:26:22;;;;;;;0.65;0.10;;;15.20;49.70;;;;;;5049208;28;20079;-67
2022/04/08 01:28:48;;;;;;;2.00;0.20;;;15.40;49.20;;;;;;5048774;28;20047;-70
2022/04/08 01:31:15;;;;;;;1.35;0.47;;;15.70;48.60;;;;;;5049026;28;20048;-71
2022/04/08 01:33:41;;;;;;;1.40;0.20;;;16.00;48.00;;;;;;5049108;28;20051;-72
2022/04/08 01:36:07;;;;;;;1.67;0.38;;;16.30;47.40;;;;;;5048805;28;20112;-72
2022/04/08 01:38:32;;;;;;;1.20;0.35;;;16.60;46.90;;;;;;5050867;28;20120;-70
2022/04/08 01:40:58;;;;;;;1.92;0.10;;;16.80;46.40;;;;;;5049557;28;20127;-71
2022/04/08 01:43:24;;;;;;;2.17;0.17;;;17.00;45.90;;;;;;5049242;28;20385;-70
2022/04/08 01:45:49;;;;;;;0.80;0.10;;;17.20;45.50;;;;;;5049205;28;20041;-71
2022/04/08 01:48:16;;;;;;;1.40;0.15;;;17.40;45.20;;;;;;5049896;28;20264;-72
2022/04/08 01:50:41;;;;;;;0.47;0.10;;;17.50;44.90;;;;;;5048499;28;20091;-67
2022/04/08 01:53:10;;;;;;;0.80;0.10;;;17.50;44.60;;;;;;5048843;28;20464;-67
2022/04/08 01:55:36;;;;;;;1.27;0.17;;;17.60;44.40;;;;;;5048678;28;20037;-70
2022/04/08 01:58:02;;;;;;;0.73;0.10;;;17.60;44.30;;;;;;5050055;28;20087;-71
2022/04/08 02:00:29;;;;;;;0.88;0.10;;;17.70;44.20;;;;;;5049000;28;20116;-73
2022/04/08 02:02:55;;;;;;;1.35;0.17;;;17.60;44.10;;;;;;5049016;28;20045;-67
2022/04/08 02:05:21;;;;;;;1.20;0.10;;;17.60;44.10;;;;;;5048979;28;20136;-71
2022/04/08 02:07:46;;;;;;;0.50;0.10;;;17.50;44.00;;;;;;5050161;28;20040;-70
2022/04/08 02:10:12;;;;;;;1.58;0.10;;;17.50;44.10;;;;;;5048539;28;20045;-67
2022/04/08 02:12:38;;;;;;;2.03;0.10;;;17.40;44.10;;;;;;5050576;28;20143;-70
2022/04/08 02:15:04;;;;;;;0.50;0.10;;;17.30;44.10;;;;;;5052165;28;20060;-67
2022/04/08 02:17:31;;;;;;;1.85;0.30;;;17.30;44.20;;;;;;5051890;28;20085;-67
2022/04/08 02:19:57;;;;;;;0.60;0.10;;;17.20;44.30;;;;;;5053385;28;20459;-71
2022/04/08 02:22:24;;;;;;;1.35;0.20;;;17.10;44.40;;;;;;5056056;28;20076;-71
2022/04/08 02:24:50;;;;;;;0.82;0.10;;;17.00;44.50;;;;;;5056416;28;20067;-71
2022/04/08 02:27:17;;;;;;;0.43;0.10;;;16.80;44.60;;;;;;5073103;28;20494;-67
2022/04/08 02:29:43;;;;;;;2.25;0.10;;;16.70;44.80;;;;;;5055374;28;20051;-73
2022/04/08 02:32:10;;;;;;;3.22;0.20;;;16.60;45.00;;;;;;5073607;28;20033;-71
2022/04/08 02:34:37;;;;;;;1.10;0.20;;;16.50;45.10;;;;;;5073641;28;20130;-70
2022/04/08 02:37:05;;;;;;;1.05;0.17;;;16.50;45.30;;;;;;5055379;28;20618;-71
2022/04/08 02:39:31;;;;;;;1.27;0.10;;;16.40;45.40;;;;;;5055705;28;20040;-67
2022/04/08 02:41:57;;;;;;;1.73;0.15;;;16.30;45.40;;;;;;5055851;28;20055;-70
2022/04/08 02:44:23;;;;;;;2.00;0.25;;;16.30;45.60;;;;;;5073711;28;20040;-67
2022/04/08 02:46:48;;;;;;;2.22;0.47;;;16.30;45.60;;;;;;5055261;28;20056;-71
2022/04/08 02:49:14;;;;;;;1.02;0.10;;;16.40;45.60;;;;;;5055200;28;20110;-73
2022/04/08 02:51:40;;;;;;;2.05;0.20;;;16.40;45.60;;;;;;5054731;28;20095;-75
2022/04/08 02:54:06;;;;;;;1.15;0.20;;;16.40;45.50;;;;;;5055499;28;20040;-69
2022/04/08 02:56:31;;;;;;;1.05;0.20;;;16.50;45.40;;;;;;5055096;28;20052;-74
2022/04/08 02:59:00;;;;;;;1.58;0.10;;;16.50;45.40;;;;;;5055472;28;20112;-72
2022/04/08 03:01:29;;;;;;;0.95;0.20;;;16.60;45.30;;;;;;5055811;28;20040;-75
2022/04/08 03:03:55;;;;;;;1.75;0.30;;;16.60;45.10;;;;;;5055114;28;20040;-72
2022/04/08 03:06:20;;;;;;;1.65;0.10;;;16.60;45.00;;;;;;5073029;28;20388;-74
2022/04/08 03:08:49;;;;;;;1.30;0.10;;;16.60;44.90;;;;;;5054607;28;20456;-74
2022/04/08 03:11:14;;;;;;;1.27;0.13;;;16.60;44.90;;;;;;5054442;28;20036;-73
2022/04/08 03:13:40;;;;;;;1.05;0.10;;;16.60;44.90;;;;;;5055090;28;20060;-73
2022/04/08 03:16:06;;;;;;;0.65;0.13;;;16.60;44.80;;;;;;5054797;28;20064;-70
2022/04/08 03:18:31;;;;;;;0.57;0.10;;;16.60;44.90;;;;;;5055102;28;20116;-71
2022/04/08 03:20:57;;;;;;;1.58;0.40;;;16.60;44.80;;;;;;5073312;28;20037;-73
2022/04/08 03:23:22;;;;;;;1.08;0.35;;;16.50;44.90;;;;;;5054316;28;20468;-73
2022/04/08 03:25:48;;;;;;;1.02;0.20;;;16.50;44.80;;;;;;5055196;28;20074;-69
2022/04/08 03:28:14;;;;;;;2.15;0.30;;;16.50;44.90;;;;;;5054154;28;20180;-73
2022/04/08 03:30:40;;;;;;;0.77;0.20;;;16.40;44.90;;;;;;5054080;28;20049;-70
2022/04/08 03:33:06;;;;;;;2.00;0.15;;;16.40;44.90;;;;;;5072714;28;20090;-72
2022/04/08 03:35:32;;;;;;;0.73;0.10;;;16.30;44.90;;;;;;5073059;28;20426;-73
2022/04/08 03:37:58;;;;;;;1.83;0.28;;;16.30;45.00;;;;;;5054440;28;20059;-72
2022/04/08 03:40:24;;;;;;;2.50;0.80;;;16.20;45.00;;;;;;5054916;28;20484;-70
2022/04/08 03:42:49;;;;;;;1.27;0.20;;;16.20;45.10;;;;;;5072556;28;20055;-73
2022/04/08 03:45:15;;;;;;;1.70;0.10;;;16.20;45.20;;;;;;5055091;28;20097;-70
2022/04/08 03:47:40;;;;;;;2.15;0.15;;;16.10;45.20;;;;;;5053802;28;20473;-72
2022/04/08 03:50:06;;;;;;;0.80;0.20;;;16.10;45.40;;;;;;5071740;28;20033;-72
2022/04/08 03:52:32;;;;;;;1.08;0.10;;;16.00;45.40;;;;;;5071949;28;20043;-72
2022/04/08 03:55:00;;;;;;;1.25;0.20;;;16.00;45.50;;;;;;5054445;28;20119;-72
2022/04/08 03:57:27;;;;;;;0.50;0.13;;;16.00;45.50;;;;;;5054222;28;20357;-69
2022/04/08 03:59:53;;;;;;;1.38;0.20;;;15.90;45.50;;;;;;5071833;28;20036;-73
2022/04/08 04:02:20;;;;;;;0.98;0.13;;;15.90;45.50;;;;;;5054364;28;20040;-73
2022/04/08 04:04:49;;;;;;;1.83;0.20;;;15.90;45.60;;;;;;5071949;28;20548;-72
2022/04/08 04:07:15;;;;;;;0.80;0.10;;;15.90;45.60;;;;;;5053930;28;20048;-73
2022/04/08 04:09:40;;;;;;;1.65;0.25;;;15.90;45.60;;;;;;5053535;28;20381;-72
2022/04/08 04:12:08;;;;;;;1.33;0.20;;;15.90;45.60;;;;;;5054014;28;20495;-69
2022/04/08 04:14:33;;;;;;;1.42;0.20;;;15.80;45.60;;;;;;5053597;28;20131;-72
2022/04/08 04:17:03;;;;;;;2.05;0.20;;;15.90;45.60;;;;;;5053204;28;20119;-74
2022/04/08 04:19:31;;;;;;;0.60;0.10;;;15.90;45.60;;;;;;5071494;28;20033;-72
2022/04/08 04:21:57;;;;;;;2.83;0.22;;;15.90;45.60;;;;;;5054173;28;20043;-74
2022/04/08 04:24:22;;;;;;;2.63;0.20;;;15.90;45.60;;;;;;5054151;28;20052;-74
2022/04/08 04:26:48;;;;;;;1.52;0.10;;;15.90;45.60;;;;;;5054556;28;20480;-73
2022/04/08 04:29:14;;;;;;;2.05;0.28;;;15.90;45.50;;;;;;5071251;28;20503;-73
2022/04/08 04:31:39;;;;;;;1.73;0.20;;;16.00;45.50;;;;;;5071080;28;20036;-72
2022/04/08 04:34:05;;;;;;;2.20;0.20;;;16.00;45.50;;;;;;5053552;28;20158;-69
2022/04/08 04:36:31;;;;;;;2.85;0.47;;;16.00;45.40;;;;;;5053068;28;20123;-72
2022/04/08 04:38:56;;;;;;;0.68;0.10;;;16.00;45.40;;;;;;5053054;28;20032;-71
2022/04/08 04:41:22;;;;;;;1.50;0.20;;;16.00;45.30;;;;;;5054112;28;20043;-73
2022/04/08 04:43:48;;;;;;;2.00;0.20;;;16.00;45.40;;;;;;5071394;28;20036;-69
2022/04/08 04:46:13;;;;;;;1.10;0.20;;;16.00;45.40;;;;;;5053805;28;20397;-72
2022/04/08 04:48:39;;;;;;;1.70;0.35;;;15.90;45.30;;;;;;5053178;28;20118;-73
2022/04/08 04:51:05;;;;;;;1.38;0.20;;;15.90;45.30;;;;;;5052597;28;20036;-68
2022/04/08 04:53:30;;;;;;;2.15;0.20;;;16.00;45.30;;;;;;5053214;28;20044;-73
2022/04/08 04:55:56;;;;;;;1.88;0.20;;;16.00;45.30;;;;;;5052915;28;20040;-74
2022/04/08 04:58:22;;;;;;;2.13;0.20;;;15.90;45.30;;;;;;5052313;28;20045;-73
2022/04/08 05:00:47;;;;;;;2.97;0.32;;;16.00;45.30;;;;;;5053557;28;20075;-72
2022/04/08 05:03:13;;;;;;;3.40;0.50;;;15.90;46.10;;;;;;5053608;28;20388;-72
2022/04/08 05:05:39;;;;;;;1.13;0.28;;;15.90;45.30;;;;;;5053923;28;20036;-72
2022/04/08 05:08:07;;;;;;;2.25;0.20;;;15.90;45.30;;;;;;5053252;28;20044;-72
2022/04/08 05:10:32;;;;;;;1.92;0.20;;;15.90;45.30;;;;;;5052588;28;20047;-72
2022/04/08 05:13:01;;;;;;;1.25;0.17;;;15.90;45.30;;;;;;5052841;28;20036;-73
2022/04/08 05:15:28;;;;;;;1.77;0.20;;;15.90;45.30;;;;;;5052697;28;20047;-69
2022/04/08 05:17:55;;;;;;;1.52;0.20;;;15.80;45.30;;;;;;5052033;28;20499;-73
2022/04/08 05:20:20;;;;;;;2.38;0.20;;;15.80;45.30;;;;;;5071310;28;20090;-76
2022/04/08 05:22:46;;;;;;;3.00;0.35;;;15.80;45.30;;;;;;5053289;28;20041;-73
2022/04/08 05:25:12;;;;;;;2.25;0.52;;;15.80;45.30;;;;;;5053402;28;20064;-73
2022/04/08 05:30:17;;;;;;;2.85;0.57;;;15.80;45.30;;;;;;5088233;27;20381;-67
2022/04/08 05:32:46;;;;;;;1.50;0.20;;;15.80;45.40;;;;;;5086914;28;20059;-73
2022/04/08 05:35:14;;;;;;;2.15;0.30;;;15.80;45.40;;;;;;5087259;28;20078;-73
2022/04/08 05:37:42;;;;;;;1.73;0.30;;;15.70;45.50;;;;;;5086550;28;20056;-71
2022/04/08 05:40:16;;;;;;;1.73;0.20;;;15.70;45.50;;;;;;5088181;28;20047;-72
2022/04/08 05:42:44;;;;;;;3.05;0.63;;;15.70;45.40;;;;;;5086827;28;20043;-72
2022/04/08 05:45:11;;;;;;;1.08;0.10;;;15.70;45.30;;;;;;5087327;28;20442;-74
2022/04/08 05:47:37;;;;;;;0.95;0.10;;;15.70;45.30;;;;;;5086731;28;20122;-73
2022/04/08 05:50:04;;;;;;;2.13;0.30;;;15.70;45.30;;;;;;5087279;28;20044;-70
2022/04/08 05:52:29;;;;;;;1.73;0.20;;;15.70;45.30;;;;;;5085928;28;20093;-72
2022/04/08 05:54:55;;;;;;;1.95;0.35;;;15.70;45.30;;;;;;5086811;28;20032;-72
2022/04/08 05:57:21;;;;;;;0.88;0.20;;;15.70;45.30;;;;;;5086297;28;20076;-74
2022/04/08 05:59:47;;;;;;;1.30;0.13;;;15.80;45.40;;;;;;5086547;28;20131;-73
2022/04/08 06:02:13;;;;;;;1.17;0.10;;;15.80;45.30;;;;;;5086845;28;20086;-73
2022/04/08 06:04:39;;;;;;;0.93;0.10;;;15.80;45.30;;;;;;5067700;28;20560;-73
2022/04/08 06:07:05;;;;;;;0.65;0.10;;;15.80;45.30;;;;;;5086317;28;20120;-74
2022/04/08 06:09:32;;;;;;;1.63;0.30;;;15.80;45.20;;;;;;5085808;28;20106;-74
2022/04/08 06:11:59;;;;;;;1.50;0.20;;;15.70;45.20;;;;;;5082560;28;20060;-72
2022/04/08 06:14:26;;;;;;;0.80;0.10;;;15.70;45.20;;;;;;5079145;28;20113;-74
2022/04/08 06:16:52;;;;;;;1.23;0.10;;;15.70;45.30;;;;;;5072879;28;20040;-75
2022/04/08 06:19:18;;;;;;;1.85;0.20;;;15.70;45.20;;;;;;5078362;28;20737;-74
2022/04/08 06:21:43;;;;;;;1.45;0.20;;;15.70;45.20;;;;;;5077454;28;20047;-70
2022/04/08 06:24:09;;;;;;;0.88;0.20;;;15.70;45.20;;;;;;5079084;28;20040;-74
2022/04/08 06:26:38;;;;;;;1.05;0.15;;;15.70;45.30;;;;;;5079332;28;20059;-74
2022/04/08 06:29:05;;;;;;;0.60;0.10;;;15.70;45.30;;;;;;5078356;28;20047;-74
2022/04/08 06:31:32;;;;;;;0.98;0.20;;;15.70;45.20;;;;;;5061760;28;20040;-71
2022/04/08 06:33:59;;;;;;;0.65;0.10;;;15.70;45.30;;;;;;5063517;28;20039;-74
2022/04/08 06:36:25;;;;;;;0.57;0.10;;;15.70;45.30;;;;;;5069357;28;20036;-74
2022/04/08 06:38:51;;;;;;;0.80;0.10;;;15.70;45.40;;;;;;5070135;28;20051;-74
2022/04/08 06:41:17;;;;;;;1.70;0.30;;;15.70;45.30;;;;;;5044125;28;20304;-73
2022/04/08 06:43:42;;;;;;;0.73;0.10;;;15.70;45.30;;;;;;5044797;28;20413;-74
2022/04/08 06:46:08;;;;;;;1.20;0.10;;;15.70;45.30;;;;;;5055477;28;20041;-70
2022/04/08 06:48:33;;;;;;;1.38;0.10;;;15.70;45.30;;;;;;5038270;28;20123;-73
2022/04/08 06:51:00;;;;;;;0.93;0.10;;;15.70;45.20;;;;;;5059758;28;20041;-73
2022/04/08 06:53:26;;;;;;;1.35;0.10;;;15.70;45.20;;;;;;5048452;28;20033;-74
2022/04/08 06:55:52;;;;;;;1.02;0.13;;;15.70;45.20;;;;;;5051047;28;20436;-74
2022/04/08 06:58:19;;;;;;;0.22;0.10;;;15.70;45.20;;;;;;5049807;28;20041;-73
2022/04/08 07:00:45;;;;;;;0.52;0.10;;;15.70;45.20;;;;;;5050682;28;20037;-70
2022/04/08 07:03:11;;;;;;;1.00;0.05;;;15.70;45.20;;;;;;5049530;28;20441;-73
2022/04/08 07:05:36;;;;;;;0.90;0.10;;;15.70;45.20;;;;;;5050502;28;20071;-73
2022/04/08 07:08:03;;;;;;;0.47;0.10;;;15.70;45.10;;;;;;5053390;28;20058;-73
2022/04/08 07:10:29;;;;;;;0.50;0.05;;;15.70;45.10;;;;;;5048944;28;20037;-73
2022/04/08 07:12:57;;;;;;;1.13;0.10;;;15.80;45.10;;;;;;5045823;28;20067;-73
2022/04/08 07:15:23;;;;;;;0.85;0.10;;;15.80;45.00;;;;;;5047377;28;20041;-75
2022/04/08 07:17:49;;;;;;;1.63;0.10;;;15.80;44.90;;;;;;5049629;28;20029;-69
2022/04/08 07:20:15;;;;;;;1.45;0.17;;;15.80;44.90;;;;;;5048481;28;20083;-73
2022/04/08 07:22:41;;;;;;;0.55;0.10;;;15.90;44.90;;;;;;5067503;28;20040;-73
2022/04/08 07:25:07;;;;;;;0.60;0.10;;;15.90;44.90;;;;;;5051159;28;20677;-73
2022/04/08 07:27:53;;;;;;;0.40;0.08;;;15.90;44.80;;;;;;5039894;28;20036;-72
2022/04/08 07:30:20;;;;;;;1.75;0.10;;;16.00;44.80;;;;;;5055740;28;20187;-73
2022/04/08 07:32:48;;;;;;;0.98;0.10;;;16.00;44.70;;;;;;5047244;28;20037;-74
2022/04/08 07:35:13;;;;;;;0.98;0.13;;;16.00;44.60;;;;;;5063269;28;20399;-73
2022/04/08 07:37:39;;;;;;;1.75;0.10;;;16.00;44.70;;;;;;5049725;28;20038;-72
2022/04/08 07:40:07;;;;;;;1.20;0.10;;;16.00;44.60;;;;;;5052869;28;20404;-73
2022/04/08 07:42:33;;;;;;;0.82;0.10;;;16.10;44.60;;;;;;5047085;28;20057;-73
2022/04/08 07:44:58;;;;;;;0.52;0.15;;;16.10;44.60;;;;;;5063971;28;20412;-70
2022/04/08 07:47:28;;;;;;;0.55;0.20;;;16.00;44.50;;;;;;5060952;28;20037;-72
2022/04/08 07:50:05;;;;;;;1.27;0.03;;;16.10;44.60;;;;;;5044766;28;20065;-73
2022/04/08 07:52:31;;;;;;;0.95;0.10;;;16.10;44.70;;;;;;5060072;28;20140;-71
2022/04/08 07:54:57;;;;;;;0.75;0.10;;;16.10;44.70;;;;;;5048198;28;20043;-73
2022/04/08 07:57:23;;;;;;;0.82;0.10;;;16.00;44.60;;;;;;5046273;28;20131;-72
2022/04/08 07:59:49;;;;;;;1.27;0.43;;;16.00;44.60;;;;;;5062765;28;20154;-73
2022/04/08 08:02:15;;;;;;;0.93;0.10;;;16.00;44.70;;;;;;5043248;28;20588;-72
2022/04/08 08:04:41;;;;;;;0.50;0.10;;;16.00;44.80;;;;;;5043495;28;20039;-73
2022/04/08 08:07:07;;;;;;;0.13;0.10;;;16.00;44.90;;;;;;5044917;28;20097;-73
2022/04/08 08:09:33;;;;;;;0.60;0.10;;;16.00;44.90;;;;;;5048292;28;20036;-71
2022/04/08 08:12:00;;;;;;;1.08;0.20;;;15.90;44.90;;;;;;5042689;28;20284;-72
2022/04/08 08:14:25;;;;;;;1.73;0.30;;;15.90;45.00;;;;;;5049891;28;20108;-72
2022/04/08 08:16:51;;;;;;;0.43;0.10;;;15.90;45.00;;;;;;5048747;28;20125;-72
2022/04/08 08:19:17;;;;;;;0.77;0.28;;;15.90;45.10;;;;;;5049997;28;20091;-72
2022/04/08 08:21:42;;;;;;;0.75;0.10;;;15.90;45.10;;;;;;5046992;28;20136;-72
2022/04/08 08:24:08;;;;;;;1.25;0.10;;;15.90;45.10;;;;;;5049157;28;20558;-69
2022/04/08 08:26:34;;;;;;;1.98;0.40;;;15.90;45.10;;;;;;5047034;28;20037;-72
2022/04/08 08:29:00;;;;;;;0.75;0.28;;;15.90;45.00;;;;;;5044450;28;20065;-72
2022/04/08 08:31:26;;;;;;;1.48;0.20;;;15.90;45.00;;;;;;5051192;28;20208;-72
2022/04/08 08:33:52;;;;;;;2.80;0.20;;;15.90;44.90;;;;;;5060994;28;20116;-72
2022/04/08 08:36:17;;;;;;;1.60;0.10;;;16.00;45.00;;;;;;5062296;28;20040;-73
2022/04/08 08:38:43;;;;;;;1.45;0.20;;;16.00;44.90;;;;;;5051227;28;20040;-73
2022/04/08 08:41:10;;;;;;;0.45;0.20;;;16.00;45.00;;;;;;5042449;28;20060;-72
2022/04/08 08:43:37;;;;;;;0.45;0.10;;;16.00;45.40;;;;;;5047527;28;20169;-70
2022/04/08 08:46:04;;;;;;;1.15;0.52;;;16.00;45.70;;;;;;5064822;28;20044;-72
2022/04/08 08:48:32;;;;;;;1.05;0.10;;;16.10;45.80;;;;;;5047885;28;20131;-69
2022/04/08 08:51:02;;;;;;;0.75;0.20;;;16.10;45.80;;;;;;5049199;28;20036;-69
2022/04/08 08:53:30;;;;;;;2.17;0.15;;;16.00;45.70;;;;;;5046314;28;20071;-71
2022/04/08 08:55:56;;;;;;;0.63;0.10;;;16.00;45.70;;;;;;5066028;28;20045;-71
2022/04/08 08:58:23;;;;;;;0.80;0.10;;;16.00;45.70;;;;;;5042706;28;20504;-73
2022/04/08 09:00:49;;;;;;;0.70;0.10;;;16.00;45.70;;;;;;5033165;28;20044;-69
2022/04/08 09:03:15;;;;;;;0.98;0.20;;;16.00;45.70;;;;;;5053061;28;20047;-72
2022/04/08 09:05:42;;;;;;;0.50;0.10;;;16.10;45.70;;;;;;5051516;28;20528;-71
2022/04/08 09:08:08;;;;;;;0.65;0.10;;;16.10;45.50;;;;;;5049794;28;20432;-71
2022/04/08 09:10:39;;;;;;;1.40;0.13;;;16.10;45.40;;;;;;5050856;28;20075;-68
2022/04/08 09:13:07;;;;;;;1.05;0.10;;;16.20;45.40;;;;;;5047330;28;20485;-71
2022/04/08 09:15:37;;;;;;;1.95;0.10;;;16.20;45.30;;;;;;5042459;28;20178;-71
2022/04/08 09:18:07;;;;;;;1.88;0.10;;;16.30;45.20;;;;;;5042262;28;20135;-72
2022/04/08 09:20:42;;;;;;;1.27;0.10;;;16.30;45.10;;;;;;5047030;28;20039;-72
2022/04/08 09:23:08;;;;;;;0.57;0.10;;;16.40;45.00;;;;;;5048835;28;20545;-73
2022/04/08 09:25:35;;;;;;;2.17;0.10;;;16.40;44.90;;;;;;5047829;28;20086;-67
2022/04/08 09:28:17;;;;;;;1.05;0.10;;;16.40;44.90;;;;;;5046654;28;20067;-72
2022/04/08 09:30:55;;;;;;;0.45;0.10;;;16.50;44.80;;;;;;5047880;28;20055;-71
2022/04/08 09:33:23;;;;;;;0.77;0.10;;;16.50;44.80;;;;;;5047448;28;20055;-71
2022/04/08 09:35:50;;;;;;;1.35;0.10;;;16.60;44.70;;;;;;5064885;28;20374;-66
2022/04/08 09:38:21;;;;;;;1.92;0.93;;;16.60;44.70;;;;;;5067766;28;20045;-72
2022/04/08 09:40:48;;;;;;;1.48;0.10;;;16.60;44.70;;;;;;5045849;28;20048;-72
2022/04/08 09:43:14;;;;;;;1.27;0.20;;;16.60;44.70;;;;;;5047834;28;20140;-66
2022/04/08 09:45:40;;;;;;;1.38;0.20;;;16.60;44.60;;;;;;5063550;28;20497;-71
2022/04/08 09:48:08;;;;;;;1.02;0.20;;;16.70;44.60;;;;;;5047591;28;20039;-73
2022/04/08 09:50:36;;;;;;;0.95;0.10;;;16.70;44.60;;;;;;5049450;28;20091;-71
2022/04/08 09:53:03;;;;;;;1.45;0.32;;;16.60;44.60;;;;;;5048916;28;20028;-72
2022/04/08 09:55:30;;;;;;;1.42;0.17;;;16.70;44.60;;;;;;5048119;28;20609;-73
2022/04/08 09:57:57;;;;;;;0.95;0.20;;;16.70;44.50;;;;;;5062784;28;20040;-75
2022/04/08 10:00:25;;;;;;;0.57;0.10;;;16.80;44.40;;;;;;5047205;28;20556;-71
2022/04/08 10:02:54;;;;;;;1.63;0.40;;;16.80;44.40;;;;;;5050726;28;20099;-72
2022/04/08 10:05:22;;;;;;;1.50;0.20;;;16.80;44.20;;;;;;5052311;28;20040;-67
2022/04/08 10:07:49;;;;;;;1.73;0.10;;;16.90;44.10;;;;;;5048057;28;20040;-72
2022/04/08 10:10:42;;;;;;;1.50;0.10;;;16.90;44.10;;;;;;5064604;28;20069;-72
2022/04/08 10:16:15;;;;;;;1.70;0.10;;;17.00;43.90;;;;;;5068194;27;20729;-69
2022/04/08 10:18:43;;;;;;;2.03;0.10;;;17.00;43.60;;;;;;5101147;28;20482;-68
2022/04/08 10:21:10;;;;;;;1.95;0.50;;;17.00;43.60;;;;;;5064147;28;20389;-70
2022/04/08 10:23:39;;;;;;;0.50;0.10;;;17.00;43.50;;;;;;5068911;28;20072;-70
2022/04/08 10:26:06;;;;;;;0.95;0.20;;;17.00;43.50;;;;;;5066077;28;20037;-65
2022/04/08 10:28:36;;;;;;;1.45;0.25;;;17.00;43.40;;;;;;5065359;28;20361;-71
2022/04/08 10:31:12;;;;;;;0.90;0.20;;;17.10;43.30;;;;;;5067943;28;20389;-71
2022/04/08 10:33:45;;;;;;;1.27;0.20;;;17.20;43.20;;;;;;5060379;28;20170;-70
2022/04/08 10:36:11;;;;;;;0.90;0.20;;;17.20;43.10;;;;;;5076044;28;20697;-71
2022/04/08 10:38:38;;;;;;;1.13;0.10;;;17.30;43.00;;;;;;5070298;28;20111;-65
2022/04/08 10:41:11;;;;;;;1.52;0.15;;;17.40;43.00;;;;;;5069559;28;20056;-65
2022/04/08 10:43:47;;;;;;;1.00;0.20;;;17.40;42.90;;;;;;5068626;28;20067;-71
2022/04/08 10:46:13;;;;;;;2.03;0.20;;;17.50;42.90;;;;;;5069385;28;20048;-72
2022/04/08 10:48:39;;;;;;;2.80;0.20;;;17.50;42.80;;;;;;5067646;28;20044;-72
2022/04/08 10:53:48;;;;;;;0.93;0.10;;;17.50;42.50;;;;;;5109960;27;20427;-71
2022/04/08 10:56:15;;;;;;;0.85;0.10;;;17.60;42.20;;;;;;5136156;27;20027;-66
2022/04/08 10:58:45;;;;;;;1.40;0.20;;;17.60;42.10;;;;;;5133459;27;20032;-71
2022/04/08 11:01:13;;;;;;;;;;;17.70;42.00;;;;;;5130553;27;20036;-71
2022/04/08 11:03:44;;;;;;;3.53;0.20;;;17.80;41.70;;;;;;5130357;27;19927;-71
2022/04/08 11:06:18;;;;;;;1.33;0.10;;;17.80;41.70;;;;;;5097780;28;20484;-70
2022/04/08 11:08:44;;;;;;;2.42;0.20;;;17.70;41.60;;;;;;5093389;28;20044;-71
2022/04/08 11:11:10;;;;;;;1.73;0.17;;;17.70;41.60;;;;;;5131868;27;20468;-73
2022/04/08 11:13:38;;;;;;;1.05;0.38;;;17.70;41.60;;;;;;5125096;27;20055;-74
2022/04/08 11:16:04;;;;;;;0.63;0.10;;;17.60;41.60;;;;;;5093959;28;20043;-73
2022/04/08 11:18:30;;;;;;;0.52;0.10;;;17.60;41.70;;;;;;5127594;27;20052;-74
2022/04/08 11:20:56;;;;;;;1.20;0.10;;;17.50;41.80;;;;;;5126911;27;20333;-71
2022/04/08 11:23:32;;;;;;;1.75;0.17;;;17.60;41.90;;;;;;5128033;27;20411;-68
2022/04/08 11:25:59;;;;;;;1.33;0.20;;;17.60;41.80;;;;;;5130403;27;20040;-68
2022/04/08 11:28:24;;;;;;;1.75;0.50;;;17.60;41.70;;;;;;5096553;28;20495;-71
2022/04/08 11:30:56;;;;;;;1.42;0.20;;;17.70;41.80;;;;;;5086458;28;20052;-73
2022/04/08 11:33:22;;;;;;;1.45;0.20;;;17.70;41.60;;;;;;5090704;28;20040;-72
2022/04/08 11:35:55;;;;;;;1.23;0.10;;;17.70;41.50;;;;;;5090818;28;20383;-72
2022/04/08 11:38:20;;;;;;;1.83;0.20;;;17.70;41.40;;;;;;5091326;28;20044;-70
2022/04/08 11:40:46;;;;;;;0.88;0.20;;;17.60;41.50;;;;;;5129776;27;20508;-64
2022/04/08 11:43:15;;;;;;;1.98;0.20;;;17.60;41.60;;;;;;5093688;28;20036;-72
2022/04/08 11:45:42;;;;;;;1.45;0.20;;;17.60;41.80;;;;;;5097840;28;20067;-73
2022/04/08 11:48:15;;;;;;;0.70;0.10;;;17.60;41.90;;;;;;5099930;28;20746;-68
2022/04/08 11:50:43;;;;;;;2.75;0.10;;;17.60;42.00;;;;;;5098978;28;20063;-68
2022/04/08 11:53:24;;;;;;;2.85;0.17;;;17.50;42.00;;;;;;5099159;28;20055;-68
2022/04/08 11:56:01;;;;;;;3.20;0.20;;;17.60;44.90;;;;;;5099388;28;20036;-68
2022/04/08 11:58:28;;;;;;;1.88;0.52;;;17.50;44.90;;;;;;5097554;28;20093;-70
2022/04/08 12:00:54;;;;;;;2.22;0.20;;;17.50;45.40;;;;;;5097244;28;20040;-70
2022/04/08 12:03:27;;;;;;;1.25;0.20;;;17.50;45.80;;;;;;5089207;28;20032;-71
2022/04/08 12:05:53;;;;;;;3.00;0.20;;;17.50;45.90;;;;;;5115740;27;20028;-72
2022/04/08 12:08:19;;;;;;;2.78;0.15;;;17.50;45.90;;;;;;5082532;28;20046;-72
2022/04/08 12:10:51;;;;;;;4.22;0.77;;;17.50;45.90;;;;;;5080343;28;20056;-74
2022/04/08 12:13:22;;;;;;;4.85;0.30;;;17.50;46.30;;;;;;5071359;28;20040;-72
2022/04/08 12:15:50;;;;;;;3.60;0.20;;;17.50;46.30;;;;;;5072087;28;20143;-72
2022/04/08 12:18:21;;;;;;;2.72;0.20;;;17.50;46.30;;;;;;5076083;28;20048;-72
2022/04/08 12:20:53;;;;;;;2.42;0.20;;;17.50;46.30;;;;;;5077283;28;20339;-71
2022/04/08 12:23:21;;;;;;;1.88;0.20;;;17.50;46.40;;;;;;5078444;28;20050;-70
2022/04/08 12:25:52;;;;;;;1.05;0.20;;;17.60;47.10;;;;;;5075468;28;20544;-71
2022/04/08 12:28:18;;;;;;;2.17;0.20;;;17.60;46.30;;;;;;5111295;27;20028;-71
2022/04/08 12:30:44;;;;;;;2.67;0.20;;;17.60;46.20;;;;;;5071934;28;20035;-71
2022/04/08 12:33:09;;;;;;;1.35;0.20;;;17.60;46.20;;;;;;5070570;28;20058;-69
2022/04/08 12:35:35;;;;;;;1.90;0.10;;;17.70;46.30;;;;;;5063233;28;20036;-70
2022/04/08 12:38:04;;;;;;;1.65;0.20;;;17.70;46.20;;;;;;5079837;28;20064;-70
2022/04/08 12:40:31;;;;;;;2.20;0.20;;;17.70;46.10;;;;;;5106196;27;20044;-72
2022/04/08 12:42:57;;;;;;;2.05;0.17;;;17.70;46.10;;;;;;5073470;28;20499;-69
2022/04/08 12:45:22;;;;;;;0.60;0.20;;;17.80;46.40;;;;;;5076695;28;20055;-73
2022/04/08 12:47:48;;;;;;;1.15;0.20;;;17.80;46.30;;;;;;5081532;28;20122;-72
2022/04/08 12:50:14;;;;;;;1.33;0.10;;;17.80;46.40;;;;;;5080028;28;20500;-69
2022/04/08 12:52:41;;;;;;;3.08;0.20;;;17.80;46.30;;;;;;5079120;28;20447;-70
2022/04/08 12:55:08;;;;;;;3.03;0.10;;;17.90;46.30;;;;;;5113933;27;20123;-68